sensor_id;sensor_type;location;lat;lon;timestamp;temperature;humidity
41533;DHT22;27262;-35.248;149.138;2023-04-29T00:01:48;20.70;69.70
41533;DHT22;27262;-35.248;149.138;2023-04-29T00:04:18;20.70;69.50
41533;DHT22;27262;-35.248;149.138;2023-04-29T00:06:49;20.70;69.40
41533;DHT22;27262;-35.248;149.138;2023-04-29T00:09:20;20.70;69.20
41533;DHT22;27262;-35.248;149.138;2023-04-29T00:11:50;20.70;69.00
41533;DHT22;27262;-35.248;149.138;2023-04-29T00:14:20;20.80;69.00
41533;DHT22;27262;-35.248;149.138;2023-04-29T00:16:51;20.80;69.00
41533;DHT22;27262;-35.248;149.138;2023-04-29T00:19:21;20.80;68.90
41533;DHT22;27262;-35.248;149.138;2023-04-29T00:21:53;20.80;68.80
41533;DHT22;27262;-35.248;149.138;2023-04-29T00:24:24;20.80;68.70
41533;DHT22;27262;-35.248;149.138;2023-04-29T00:26:54;20.80;68.70
41533;DHT22;27262;-35.248;149.138;2023-04-29T00:29:24;20.80;68.60
41533;DHT22;27262;-35.248;149.138;2023-04-29T00:31:56;20.80;68.60
41533;DHT22;27262;-35.248;149.138;2023-04-29T00:34:26;20.80;68.50
41533;DHT22;27262;-35.248;149.138;2023-04-29T00:36:56;20.80;68.50
41533;DHT22;27262;-35.248;149.138;2023-04-29T00:39:27;20.90;68.50
41533;DHT22;27262;-35.248;149.138;2023-04-29T00:41:57;20.90;68.50
41533;DHT22;27262;-35.248;149.138;2023-04-29T00:44:27;20.90;68.50
41533;DHT22;27262;-35.248;149.138;2023-04-29T00:46:58;20.90;68.50
41533;DHT22;27262;-35.248;149.138;2023-04-29T00:49:29;20.90;68.50
41533;DHT22;27262;-35.248;149.138;2023-04-29T00:52:00;20.80;68.50
41533;DHT22;27262;-35.248;149.138;2023-04-29T00:54:31;20.90;68.60
41533;DHT22;27262;-35.248;149.138;2023-04-29T00:57:02;20.90;68.70
41533;DHT22;27262;-35.248;149.138;2023-04-29T00:59:35;20.90;68.80
41533;DHT22;27262;-35.248;149.138;2023-04-29T01:02:07;20.90;68.80
41533;DHT22;27262;-35.248;149.138;2023-04-29T01:04:37;20.90;68.90
41533;DHT22;27262;-35.248;149.138;2023-04-29T01:12:45;20.90;69.10
41533;DHT22;27262;-35.248;149.138;2023-04-29T01:16:00;21.00;69.20
41533;DHT22;27262;-35.248;149.138;2023-04-29T01:18:42;21.00;69.30
41533;DHT22;27262;-35.248;149.138;2023-04-29T01:21:16;21.00;69.30
41533;DHT22;27262;-35.248;149.138;2023-04-29T01:23:47;20.90;69.30
41533;DHT22;27262;-35.248;149.138;2023-04-29T01:26:25;21.00;69.30
41533;DHT22;27262;-35.248;149.138;2023-04-29T01:29:27;21.00;69.40
41533;DHT22;27262;-35.248;149.138;2023-04-29T01:32:04;21.00;69.60
41533;DHT22;27262;-35.248;149.138;2023-04-29T01:38:15;21.00;69.80
41533;DHT22;27262;-35.248;149.138;2023-04-29T01:41:14;21.00;69.80
41533;DHT22;27262;-35.248;149.138;2023-04-29T01:43:49;21.00;70.00
41533;DHT22;27262;-35.248;149.138;2023-04-29T01:46:20;21.00;69.90
41533;DHT22;27262;-35.248;149.138;2023-04-29T01:48:53;21.10;69.90
41533;DHT22;27262;-35.248;149.138;2023-04-29T01:51:24;21.00;70.00
41533;DHT22;27262;-35.248;149.138;2023-04-29T01:53:54;21.10;70.20
41533;DHT22;27262;-35.248;149.138;2023-04-29T01:56:25;21.10;70.20
41533;DHT22;27262;-35.248;149.138;2023-04-29T01:58:55;21.10;70.20
41533;DHT22;27262;-35.248;149.138;2023-04-29T02:01:26;21.10;70.20
41533;DHT22;27262;-35.248;149.138;2023-04-29T02:03:56;21.10;70.10
41533;DHT22;27262;-35.248;149.138;2023-04-29T02:06:27;21.10;70.10
41533;DHT22;27262;-35.248;149.138;2023-04-29T02:08:58;21.20;70.00
41533;DHT22;27262;-35.248;149.138;2023-04-29T02:11:28;21.20;69.90
41533;DHT22;27262;-35.248;149.138;2023-04-29T02:13:58;21.20;69.80
41533;DHT22;27262;-35.248;149.138;2023-04-29T02:16:29;21.20;69.80
41533;DHT22;27262;-35.248;149.138;2023-04-29T02:18:59;21.20;69.70
41533;DHT22;27262;-35.248;149.138;2023-04-29T02:21:30;21.20;69.70
41533;DHT22;27262;-35.248;149.138;2023-04-29T02:24:00;21.20;69.70
41533;DHT22;27262;-35.248;149.138;2023-04-29T02:26:31;21.20;69.80
41533;DHT22;27262;-35.248;149.138;2023-04-29T02:29:02;21.20;69.70
41533;DHT22;27262;-35.248;149.138;2023-04-29T02:31:33;21.30;69.80
41533;DHT22;27262;-35.248;149.138;2023-04-29T02:34:03;21.30;69.80
41533;DHT22;27262;-35.248;149.138;2023-04-29T02:36:33;21.20;69.80
41533;DHT22;27262;-35.248;149.138;2023-04-29T02:39:04;21.30;69.80
41533;DHT22;27262;-35.248;149.138;2023-04-29T02:41:35;21.30;69.80
41533;DHT22;27262;-35.248;149.138;2023-04-29T02:44:05;21.20;69.70
41533;DHT22;27262;-35.248;149.138;2023-04-29T02:46:35;21.20;69.70
41533;DHT22;27262;-35.248;149.138;2023-04-29T02:49:06;21.30;69.80
41533;DHT22;27262;-35.248;149.138;2023-04-29T02:51:36;21.30;69.80
41533;DHT22;27262;-35.248;149.138;2023-04-29T02:54:07;21.30;69.70
41533;DHT22;27262;-35.248;149.138;2023-04-29T02:56:37;21.30;69.70
41533;DHT22;27262;-35.248;149.138;2023-04-29T02:59:08;21.30;69.70
41533;DHT22;27262;-35.248;149.138;2023-04-29T03:01:38;21.40;69.70
41533;DHT22;27262;-35.248;149.138;2023-04-29T03:04:08;21.30;69.80
41533;DHT22;27262;-35.248;149.138;2023-04-29T03:06:40;21.30;69.90
41533;DHT22;27262;-35.248;149.138;2023-04-29T03:09:12;21.30;70.00
41533;DHT22;27262;-35.248;149.138;2023-04-29T03:11:42;21.30;70.10
41533;DHT22;27262;-35.248;149.138;2023-04-29T03:14:13;21.30;70.10
41533;DHT22;27262;-35.248;149.138;2023-04-29T03:16:43;21.30;70.10
41533;DHT22;27262;-35.248;149.138;2023-04-29T03:19:13;21.40;70.10
41533;DHT22;27262;-35.248;149.138;2023-04-29T03:21:45;21.40;70.20
41533;DHT22;27262;-35.248;149.138;2023-04-29T03:24:15;21.40;70.20
41533;DHT22;27262;-35.248;149.138;2023-04-29T03:26:46;21.40;70.20
41533;DHT22;27262;-35.248;149.138;2023-04-29T03:29:16;21.40;70.20
41533;DHT22;27262;-35.248;149.138;2023-04-29T03:31:48;21.40;70.30
41533;DHT22;27262;-35.248;149.138;2023-04-29T03:34:20;21.40;70.30
41533;DHT22;27262;-35.248;149.138;2023-04-29T03:36:50;21.40;70.20
41533;DHT22;27262;-35.248;149.138;2023-04-29T03:39:21;21.50;70.30
41533;DHT22;27262;-35.248;149.138;2023-04-29T03:41:52;21.50;70.10
41533;DHT22;27262;-35.248;149.138;2023-04-29T03:44:22;21.60;70.00
41533;DHT22;27262;-35.248;149.138;2023-04-29T03:46:53;21.60;69.90
41533;DHT22;27262;-35.248;149.138;2023-04-29T03:49:23;21.60;69.80
41533;DHT22;27262;-35.248;149.138;2023-04-29T03:51:54;21.60;69.80
41533;DHT22;27262;-35.248;149.138;2023-04-29T03:54:24;21.60;69.70
41533;DHT22;27262;-35.248;149.138;2023-04-29T03:56:55;21.70;69.70
41533;DHT22;27262;-35.248;149.138;2023-04-29T03:59:25;21.70;69.60
41533;DHT22;27262;-35.248;149.138;2023-04-29T04:01:56;21.70;69.50
41533;DHT22;27262;-35.248;149.138;2023-04-29T04:04:27;21.80;69.60
41533;DHT22;27262;-35.248;149.138;2023-04-29T04:06:57;21.80;69.30
41533;DHT22;27262;-35.248;149.138;2023-04-29T04:09:28;21.80;69.30
41533;DHT22;27262;-35.248;149.138;2023-04-29T04:11:59;21.80;69.20
41533;DHT22;27262;-35.248;149.138;2023-04-29T04:14:29;21.90;69.00
41533;DHT22;27262;-35.248;149.138;2023-04-29T04:17:00;21.90;69.00
41533;DHT22;27262;-35.248;149.138;2023-04-29T04:19:30;21.90;68.70
41533;DHT22;27262;-35.248;149.138;2023-04-29T04:22:03;21.90;68.60
41533;DHT22;27262;-35.248;149.138;2023-04-29T04:24:33;21.90;68.40
41533;DHT22;27262;-35.248;149.138;2023-04-29T04:27:03;22.00;68.50
41533;DHT22;27262;-35.248;149.138;2023-04-29T04:29:34;22.00;68.30
41533;DHT22;27262;-35.248;149.138;2023-04-29T04:32:04;22.00;68.20
41533;DHT22;27262;-35.248;149.138;2023-04-29T04:34:35;22.00;68.10
41533;DHT22;27262;-35.248;149.138;2023-04-29T04:37:07;22.00;68.00
41533;DHT22;27262;-35.248;149.138;2023-04-29T04:39:38;22.00;67.90
41533;DHT22;27262;-35.248;149.138;2023-04-29T04:42:08;22.10;68.00
41533;DHT22;27262;-35.248;149.138;2023-04-29T04:44:38;22.00;67.80
41533;DHT22;27262;-35.248;149.138;2023-04-29T04:47:09;22.00;67.90
41533;DHT22;27262;-35.248;149.138;2023-04-29T04:49:40;22.00;67.90
41533;DHT22;27262;-35.248;149.138;2023-04-29T04:52:10;22.00;67.80
41533;DHT22;27262;-35.248;149.138;2023-04-29T04:54:44;22.10;67.90
41533;DHT22;27262;-35.248;149.138;2023-04-29T04:57:15;22.00;67.90
41533;DHT22;27262;-35.248;149.138;2023-04-29T04:59:45;22.00;68.00
41533;DHT22;27262;-35.248;149.138;2023-04-29T05:02:15;22.00;68.20
41533;DHT22;27262;-35.248;149.138;2023-04-29T05:04:46;22.00;68.20
41533;DHT22;27262;-35.248;149.138;2023-04-29T05:07:16;22.00;68.30
41533;DHT22;27262;-35.248;149.138;2023-04-29T05:09:46;22.00;68.20
41533;DHT22;27262;-35.248;149.138;2023-04-29T05:12:17;22.00;68.40
41533;DHT22;27262;-35.248;149.138;2023-04-29T05:14:47;22.00;68.50
41533;DHT22;27262;-35.248;149.138;2023-04-29T05:17:21;22.00;68.40
41533;DHT22;27262;-35.248;149.138;2023-04-29T05:19:51;22.00;68.40
41533;DHT22;27262;-35.248;149.138;2023-04-29T05:22:22;22.00;68.40
41533;DHT22;27262;-35.248;149.138;2023-04-29T05:24:52;22.00;68.40
41533;DHT22;27262;-35.248;149.138;2023-04-29T05:27:24;22.00;68.30
41533;DHT22;27262;-35.248;149.138;2023-04-29T05:29:54;22.00;68.20
41533;DHT22;27262;-35.248;149.138;2023-04-29T05:32:24;22.00;68.20
41533;DHT22;27262;-35.248;149.138;2023-04-29T05:34:55;22.00;68.20
41533;DHT22;27262;-35.248;149.138;2023-04-29T05:37:25;22.00;68.20
41533;DHT22;27262;-35.248;149.138;2023-04-29T05:39:59;22.00;68.30
41533;DHT22;27262;-35.248;149.138;2023-04-29T05:42:30;22.00;68.40
41533;DHT22;27262;-35.248;149.138;2023-04-29T05:45:00;22.00;69.20
41533;DHT22;27262;-35.248;149.138;2023-04-29T05:47:31;22.00;68.40
41533;DHT22;27262;-35.248;149.138;2023-04-29T05:50:01;22.00;68.20
41533;DHT22;27262;-35.248;149.138;2023-04-29T05:52:33;22.10;68.20
41533;DHT22;27262;-35.248;149.138;2023-04-29T05:55:03;22.10;68.10
41533;DHT22;27262;-35.248;149.138;2023-04-29T05:57:34;22.10;68.10
41533;DHT22;27262;-35.248;149.138;2023-04-29T06:00:04;22.10;67.90
41533;DHT22;27262;-35.248;149.138;2023-04-29T06:02:35;22.10;67.80
41533;DHT22;27262;-35.248;149.138;2023-04-29T06:05:24;22.10;67.70
41533;DHT22;27262;-35.248;149.138;2023-04-29T06:07:55;22.20;67.70
41533;DHT22;27262;-35.248;149.138;2023-04-29T06:10:27;22.20;67.50
41533;DHT22;27262;-35.248;149.138;2023-04-29T06:12:57;22.20;67.40
41533;DHT22;27262;-35.248;149.138;2023-04-29T06:15:28;22.20;67.30
41533;DHT22;27262;-35.248;149.138;2023-04-29T06:17:58;22.20;67.30
41533;DHT22;27262;-35.248;149.138;2023-04-29T06:20:29;22.30;67.40
41533;DHT22;27262;-35.248;149.138;2023-04-29T06:23:02;22.30;67.30
41533;DHT22;27262;-35.248;149.138;2023-04-29T06:25:33;22.30;67.30
41533;DHT22;27262;-35.248;149.138;2023-04-29T06:28:04;22.30;67.30
41533;DHT22;27262;-35.248;149.138;2023-04-29T06:30:36;22.40;67.40
41533;DHT22;27262;-35.248;149.138;2023-04-29T06:33:07;22.40;67.40
41533;DHT22;27262;-35.248;149.138;2023-04-29T06:35:40;22.40;67.30
41533;DHT22;27262;-35.248;149.138;2023-04-29T06:38:11;22.50;67.30
41533;DHT22;27262;-35.248;149.138;2023-04-29T06:40:41;22.50;67.30
41533;DHT22;27262;-35.248;149.138;2023-04-29T06:43:11;22.50;67.30
41533;DHT22;27262;-35.248;149.138;2023-04-29T06:45:45;22.50;67.40
41533;DHT22;27262;-35.248;149.138;2023-04-29T06:48:16;22.60;67.30
41533;DHT22;27262;-35.248;149.138;2023-04-29T06:50:53;22.60;67.20
41533;DHT22;27262;-35.248;149.138;2023-04-29T06:53:24;22.60;67.10
41533;DHT22;27262;-35.248;149.138;2023-04-29T06:55:54;22.60;67.20
41533;DHT22;27262;-35.248;149.138;2023-04-29T06:58:25;22.60;67.10
41533;DHT22;27262;-35.248;149.138;2023-04-29T07:00:56;22.70;67.20
41533;DHT22;27262;-35.248;149.138;2023-04-29T07:03:26;22.70;67.10
41533;DHT22;27262;-35.248;149.138;2023-04-29T07:05:56;22.70;67.10
41533;DHT22;27262;-35.248;149.138;2023-04-29T07:08:26;22.70;67.00
41533;DHT22;27262;-35.248;149.138;2023-04-29T07:10:58;22.70;67.10
41533;DHT22;27262;-35.248;149.138;2023-04-29T07:13:28;22.80;67.00
41533;DHT22;27262;-35.248;149.138;2023-04-29T07:15:59;22.80;67.00
41533;DHT22;27262;-35.248;149.138;2023-04-29T07:18:29;22.80;67.00
41533;DHT22;27262;-35.248;149.138;2023-04-29T07:21:03;22.80;66.90
41533;DHT22;27262;-35.248;149.138;2023-04-29T07:23:33;22.80;66.70
41533;DHT22;27262;-35.248;149.138;2023-04-29T07:26:14;22.80;66.50
41533;DHT22;27262;-35.248;149.138;2023-04-29T07:28:44;22.80;66.30
41533;DHT22;27262;-35.248;149.138;2023-04-29T07:31:15;22.80;66.30
41533;DHT22;27262;-35.248;149.138;2023-04-29T07:33:45;22.80;66.10
41533;DHT22;27262;-35.248;149.138;2023-04-29T07:36:17;22.80;66.10
41533;DHT22;27262;-35.248;149.138;2023-04-29T07:38:47;22.80;65.90
41533;DHT22;27262;-35.248;149.138;2023-04-29T07:41:17;22.80;65.80
41533;DHT22;27262;-35.248;149.138;2023-04-29T07:43:48;22.80;65.70
41533;DHT22;27262;-35.248;149.138;2023-04-29T07:46:18;22.80;65.60
41533;DHT22;27262;-35.248;149.138;2023-04-29T07:48:48;22.80;65.60
41533;DHT22;27262;-35.248;149.138;2023-04-29T07:51:19;22.80;65.50
41533;DHT22;27262;-35.248;149.138;2023-04-29T07:53:50;22.80;65.40
41533;DHT22;27262;-35.248;149.138;2023-04-29T07:56:20;22.80;65.30
41533;DHT22;27262;-35.248;149.138;2023-04-29T07:58:51;22.80;65.20
41533;DHT22;27262;-35.248;149.138;2023-04-29T08:01:22;22.80;65.10
41533;DHT22;27262;-35.248;149.138;2023-04-29T08:03:53;22.80;65.10
41533;DHT22;27262;-35.248;149.138;2023-04-29T08:06:24;22.80;65.00
41533;DHT22;27262;-35.248;149.138;2023-04-29T08:08:54;22.80;65.00
41533;DHT22;27262;-35.248;149.138;2023-04-29T08:11:25;22.80;65.00
41533;DHT22;27262;-35.248;149.138;2023-04-29T08:13:56;22.80;64.80
41533;DHT22;27262;-35.248;149.138;2023-04-29T08:16:28;22.80;64.80
41533;DHT22;27262;-35.248;149.138;2023-04-29T08:18:59;22.80;64.80
41533;DHT22;27262;-35.248;149.138;2023-04-29T08:21:29;22.80;64.90
41533;DHT22;27262;-35.248;149.138;2023-04-29T08:24:00;22.80;64.90
41533;DHT22;27262;-35.248;149.138;2023-04-29T08:26:31;22.80;64.90
41533;DHT22;27262;-35.248;149.138;2023-04-29T08:29:01;22.80;64.80
41533;DHT22;27262;-35.248;149.138;2023-04-29T08:31:32;22.80;64.80
41533;DHT22;27262;-35.248;149.138;2023-04-29T08:34:03;22.80;64.80
41533;DHT22;27262;-35.248;149.138;2023-04-29T08:36:34;22.80;64.80
41533;DHT22;27262;-35.248;149.138;2023-04-29T08:39:07;22.80;64.80
41533;DHT22;27262;-35.248;149.138;2023-04-29T08:41:38;22.80;64.80
41533;DHT22;27262;-35.248;149.138;2023-04-29T08:44:08;22.80;64.70
41533;DHT22;27262;-35.248;149.138;2023-04-29T08:46:39;22.80;64.70
41533;DHT22;27262;-35.248;149.138;2023-04-29T08:49:11;22.80;64.70
41533;DHT22;27262;-35.248;149.138;2023-04-29T08:51:41;22.80;64.70
41533;DHT22;27262;-35.248;149.138;2023-04-29T08:54:12;22.80;64.70
41533;DHT22;27262;-35.248;149.138;2023-04-29T08:56:44;22.80;64.70
41533;DHT22;27262;-35.248;149.138;2023-04-29T08:59:16;22.90;64.70
41533;DHT22;27262;-35.248;149.138;2023-04-29T09:01:48;22.80;64.70
41533;DHT22;27262;-35.248;149.138;2023-04-29T09:04:52;22.80;64.60
41533;DHT22;27262;-35.248;149.138;2023-04-29T09:07:24;22.80;64.40
41533;DHT22;27262;-35.248;149.138;2023-04-29T09:09:56;22.80;64.70
41533;DHT22;27262;-35.248;149.138;2023-04-29T09:12:27;22.80;64.60
41533;DHT22;27262;-35.248;149.138;2023-04-29T09:14:58;22.80;64.60
41533;DHT22;27262;-35.248;149.138;2023-04-29T09:17:58;22.90;64.40
41533;DHT22;27262;-35.248;149.138;2023-04-29T09:20:29;22.90;64.30
41533;DHT22;27262;-35.248;149.138;2023-04-29T09:23:02;22.90;64.70
41533;DHT22;27262;-35.248;149.138;2023-04-29T09:25:33;22.80;64.80
41533;DHT22;27262;-35.248;149.138;2023-04-29T09:28:17;22.80;65.00
41533;DHT22;27262;-35.248;149.138;2023-04-29T09:30:47;22.70;65.00
41533;DHT22;27262;-35.248;149.138;2023-04-29T09:33:19;22.70;65.20
41533;DHT22;27262;-35.248;149.138;2023-04-29T09:35:49;22.70;65.30
41533;DHT22;27262;-35.248;149.138;2023-04-29T09:38:26;22.60;65.20
41533;DHT22;27262;-35.248;149.138;2023-04-29T09:41:09;22.60;65.30
41533;DHT22;27262;-35.248;149.138;2023-04-29T09:43:44;22.60;65.40
41533;DHT22;27262;-35.248;149.138;2023-04-29T09:46:15;22.60;65.60
41533;DHT22;27262;-35.248;149.138;2023-04-29T09:48:46;22.60;65.70
41533;DHT22;27262;-35.248;149.138;2023-04-29T09:51:16;22.50;65.60
41533;DHT22;27262;-35.248;149.138;2023-04-29T09:53:47;22.50;65.70
41533;DHT22;27262;-35.248;149.138;2023-04-29T09:56:18;22.50;65.80
41533;DHT22;27262;-35.248;149.138;2023-04-29T09:58:50;22.50;65.80
41533;DHT22;27262;-35.248;149.138;2023-04-29T10:01:22;22.40;66.60
41533;DHT22;27262;-35.248;149.138;2023-04-29T10:03:54;22.40;65.90
41533;DHT22;27262;-35.248;149.138;2023-04-29T10:06:25;22.40;66.00
41533;DHT22;27262;-35.248;149.138;2023-04-29T10:08:57;22.30;66.00
41533;DHT22;27262;-35.248;149.138;2023-04-29T10:11:28;22.30;66.10
41533;DHT22;27262;-35.248;149.138;2023-04-29T10:14:00;22.30;66.10
41533;DHT22;27262;-35.248;149.138;2023-04-29T10:16:33;22.30;66.30
41533;DHT22;27262;-35.248;149.138;2023-04-29T10:19:13;22.30;66.40
41533;DHT22;27262;-35.248;149.138;2023-04-29T10:21:47;22.20;66.40
41533;DHT22;27262;-35.248;149.138;2023-04-29T10:24:18;22.20;66.60
41533;DHT22;27262;-35.248;149.138;2023-04-29T10:26:51;22.20;66.70
41533;DHT22;27262;-35.248;149.138;2023-04-29T10:29:27;22.20;66.70
41533;DHT22;27262;-35.248;149.138;2023-04-29T10:31:59;22.10;66.70
41533;DHT22;27262;-35.248;149.138;2023-04-29T10:34:31;22.10;66.80
41533;DHT22;27262;-35.248;149.138;2023-04-29T10:37:02;22.10;66.90
41533;DHT22;27262;-35.248;149.138;2023-04-29T10:40:00;22.10;66.90
41533;DHT22;27262;-35.248;149.138;2023-04-29T10:42:42;22.00;66.80
41533;DHT22;27262;-35.248;149.138;2023-04-29T10:45:29;22.00;67.00
41533;DHT22;27262;-35.248;149.138;2023-04-29T10:53:19;21.90;67.20
41533;DHT22;27262;-35.248;149.138;2023-04-29T10:55:58;21.90;67.30
41533;DHT22;27262;-35.248;149.138;2023-04-29T10:58:40;21.80;67.20
41533;DHT22;27262;-35.248;149.138;2023-04-29T11:01:13;21.80;67.30
41533;DHT22;27262;-35.248;149.138;2023-04-29T11:03:55;21.80;67.40
41533;DHT22;27262;-35.248;149.138;2023-04-29T11:11:47;21.70;67.50
41533;DHT22;27262;-35.248;149.138;2023-04-29T11:15:03;21.70;67.50
41533;DHT22;27262;-35.248;149.138;2023-04-29T11:17:17;21.70;67.60
41533;DHT22;27262;-35.248;149.138;2023-04-29T11:19:54;21.70;67.70
41533;DHT22;27262;-35.248;149.138;2023-04-29T11:22:29;21.60;67.70
41533;DHT22;27262;-35.248;149.138;2023-04-29T11:25:05;21.60;67.70
41533;DHT22;27262;-35.248;149.138;2023-04-29T11:27:38;21.60;67.80
41533;DHT22;27262;-35.248;149.138;2023-04-29T11:30:09;21.60;68.20
41533;DHT22;27262;-35.248;149.138;2023-04-29T11:32:41;21.60;67.80
41533;DHT22;27262;-35.248;149.138;2023-04-29T11:35:17;21.50;67.80
41533;DHT22;27262;-35.248;149.138;2023-04-29T11:37:48;21.50;67.80
41533;DHT22;27262;-35.248;149.138;2023-04-29T11:40:19;21.50;67.90
41533;DHT22;27262;-35.248;149.138;2023-04-29T11:42:50;21.50;68.00
41533;DHT22;27262;-35.248;149.138;2023-04-29T11:45:20;21.50;67.90
41533;DHT22;27262;-35.248;149.138;2023-04-29T11:47:51;21.40;67.90
41533;DHT22;27262;-35.248;149.138;2023-04-29T11:50:22;21.40;68.70
41533;DHT22;27262;-35.248;149.138;2023-04-29T11:52:53;21.40;68.00
41533;DHT22;27262;-35.248;149.138;2023-04-29T11:55:24;21.40;68.10
41533;DHT22;27262;-35.248;149.138;2023-04-29T11:57:55;21.40;68.10
41533;DHT22;27262;-35.248;149.138;2023-04-29T12:00:25;21.40;68.10
41533;DHT22;27262;-35.248;149.138;2023-04-29T12:02:56;21.30;68.10
41533;DHT22;27262;-35.248;149.138;2023-04-29T12:05:27;21.30;68.10
41533;DHT22;27262;-35.248;149.138;2023-04-29T12:07:58;21.30;68.20
41533;DHT22;27262;-35.248;149.138;2023-04-29T12:10:29;21.30;68.20
41533;DHT22;27262;-35.248;149.138;2023-04-29T12:13:00;21.30;68.20
41533;DHT22;27262;-35.248;149.138;2023-04-29T12:15:31;21.30;68.20
41533;DHT22;27262;-35.248;149.138;2023-04-29T12:18:01;21.20;68.30
41533;DHT22;27262;-35.248;149.138;2023-04-29T12:20:32;21.20;68.30
41533;DHT22;27262;-35.248;149.138;2023-04-29T12:25:43;21.20;68.40
41533;DHT22;27262;-35.248;149.138;2023-04-29T12:28:17;21.20;68.50
41533;DHT22;27262;-35.248;149.138;2023-04-29T12:30:48;21.10;68.50
41533;DHT22;27262;-35.248;149.138;2023-04-29T12:33:27;21.10;68.50
41533;DHT22;27262;-35.248;149.138;2023-04-29T12:35:58;21.10;68.50
41533;DHT22;27262;-35.248;149.138;2023-04-29T12:38:32;21.10;68.50
41533;DHT22;27262;-35.248;149.138;2023-04-29T12:41:03;21.10;68.50
41533;DHT22;27262;-35.248;149.138;2023-04-29T12:43:36;21.10;68.60
41533;DHT22;27262;-35.248;149.138;2023-04-29T12:46:08;21.10;68.60
41533;DHT22;27262;-35.248;149.138;2023-04-29T12:48:40;21.00;68.60
41533;DHT22;27262;-35.248;149.138;2023-04-29T12:51:12;21.00;68.60
41533;DHT22;27262;-35.248;149.138;2023-04-29T12:53:42;21.00;68.60
41533;DHT22;27262;-35.248;149.138;2023-04-29T12:56:12;20.90;68.60
41533;DHT22;27262;-35.248;149.138;2023-04-29T12:58:43;21.00;68.80
41533;DHT22;27262;-35.248;149.138;2023-04-29T13:01:14;20.90;68.70
41533;DHT22;27262;-35.248;149.138;2023-04-29T13:03:45;20.90;68.70
41533;DHT22;27262;-35.248;149.138;2023-04-29T13:06:16;20.90;68.70
41533;DHT22;27262;-35.248;149.138;2023-04-29T13:08:47;20.90;68.70
41533;DHT22;27262;-35.248;149.138;2023-04-29T13:11:17;20.90;68.80
41533;DHT22;27262;-35.248;149.138;2023-04-29T13:13:47;20.90;68.80
41533;DHT22;27262;-35.248;149.138;2023-04-29T13:16:18;20.90;68.80
41533;DHT22;27262;-35.248;149.138;2023-04-29T13:18:48;20.80;68.80
41533;DHT22;27262;-35.248;149.138;2023-04-29T13:21:39;20.80;68.80
41533;DHT22;27262;-35.248;149.138;2023-04-29T13:24:09;20.80;68.90
41533;DHT22;27262;-35.248;149.138;2023-04-29T13:26:40;20.80;68.90
41533;DHT22;27262;-35.248;149.138;2023-04-29T13:29:10;20.80;69.00
41533;DHT22;27262;-35.248;149.138;2023-04-29T13:31:40;20.80;69.00
41533;DHT22;27262;-35.248;149.138;2023-04-29T13:34:12;20.80;69.00
41533;DHT22;27262;-35.248;149.138;2023-04-29T13:36:42;20.70;69.00
41533;DHT22;27262;-35.248;149.138;2023-04-29T13:39:13;20.70;69.00
41533;DHT22;27262;-35.248;149.138;2023-04-29T13:41:43;20.70;69.00
41533;DHT22;27262;-35.248;149.138;2023-04-29T13:44:13;20.70;69.10
41533;DHT22;27262;-35.248;149.138;2023-04-29T13:46:46;20.70;69.10
41533;DHT22;27262;-35.248;149.138;2023-04-29T13:49:18;20.70;69.20
41533;DHT22;27262;-35.248;149.138;2023-04-29T13:51:53;20.70;69.20
41533;DHT22;27262;-35.248;149.138;2023-04-29T13:54:43;20.70;69.30
41533;DHT22;27262;-35.248;149.138;2023-04-29T13:57:16;20.60;69.20
41533;DHT22;27262;-35.248;149.138;2023-04-29T13:59:49;20.60;69.20
41533;DHT22;27262;-35.248;149.138;2023-04-29T14:02:21;20.60;69.30
41533;DHT22;27262;-35.248;149.138;2023-04-29T14:04:53;20.60;69.30
41533;DHT22;27262;-35.248;149.138;2023-04-29T14:07:24;20.60;69.30
41533;DHT22;27262;-35.248;149.138;2023-04-29T14:09:54;20.60;69.20
41533;DHT22;27262;-35.248;149.138;2023-04-29T14:12:25;20.60;70.00
41533;DHT22;27262;-35.248;149.138;2023-04-29T14:14:55;20.60;69.30
41533;DHT22;27262;-35.248;149.138;2023-04-29T14:17:27;20.50;69.20
41533;DHT22;27262;-35.248;149.138;2023-04-29T14:19:58;20.60;69.40
41533;DHT22;27262;-35.248;149.138;2023-04-29T14:22:28;20.50;69.30
41533;DHT22;27262;-35.248;149.138;2023-04-29T14:24:58;20.50;69.30
41533;DHT22;27262;-35.248;149.138;2023-04-29T14:27:29;20.50;69.30
41533;DHT22;27262;-35.248;149.138;2023-04-29T14:29:59;20.50;69.30
41533;DHT22;27262;-35.248;149.138;2023-04-29T14:32:30;20.50;69.30
41533;DHT22;27262;-35.248;149.138;2023-04-29T14:35:00;20.50;69.30
41533;DHT22;27262;-35.248;149.138;2023-04-29T14:37:30;20.40;70.00
41533;DHT22;27262;-35.248;149.138;2023-04-29T14:40:01;20.40;69.30
41533;DHT22;27262;-35.248;149.138;2023-04-29T14:42:32;20.50;69.30
41533;DHT22;27262;-35.248;149.138;2023-04-29T14:45:02;20.40;69.30
41533;DHT22;27262;-35.248;149.138;2023-04-29T14:47:33;20.40;69.20
41533;DHT22;27262;-35.248;149.138;2023-04-29T14:50:04;20.40;69.20
41533;DHT22;27262;-35.248;149.138;2023-04-29T14:52:34;20.40;69.20
41533;DHT22;27262;-35.248;149.138;2023-04-29T14:55:20;20.40;69.20
41533;DHT22;27262;-35.248;149.138;2023-04-29T14:57:50;20.40;69.10
41533;DHT22;27262;-35.248;149.138;2023-04-29T15:00:21;20.40;69.10
41533;DHT22;27262;-35.248;149.138;2023-04-29T15:02:51;20.30;69.00
41533;DHT22;27262;-35.248;149.138;2023-04-29T15:05:24;20.30;68.90
41533;DHT22;27262;-35.248;149.138;2023-04-29T15:07:54;20.30;69.70
41533;DHT22;27262;-35.248;149.138;2023-04-29T15:10:27;20.30;68.80
41533;DHT22;27262;-35.248;149.138;2023-04-29T15:12:57;20.30;68.80
41533;DHT22;27262;-35.248;149.138;2023-04-29T15:15:28;20.30;68.80
41533;DHT22;27262;-35.248;149.138;2023-04-29T15:17:59;20.20;68.70
41533;DHT22;27262;-35.248;149.138;2023-04-29T15:20:29;20.20;68.70
41533;DHT22;27262;-35.248;149.138;2023-04-29T15:22:59;20.20;68.60
41533;DHT22;27262;-35.248;149.138;2023-04-29T15:25:30;20.20;68.60
41533;DHT22;27262;-35.248;149.138;2023-04-29T15:28:03;20.20;68.60
41533;DHT22;27262;-35.248;149.138;2023-04-29T15:30:34;20.20;68.60
41533;DHT22;27262;-35.248;149.138;2023-04-29T15:33:04;20.20;68.60
41533;DHT22;27262;-35.248;149.138;2023-04-29T15:35:35;20.20;68.50
41533;DHT22;27262;-35.248;149.138;2023-04-29T15:38:05;20.20;68.50
41533;DHT22;27262;-35.248;149.138;2023-04-29T15:40:36;20.20;68.50